sensor_id;sensor_type;location;lat;lon;timestamp;P1;durP1;ratioP1;P2;durP2;ratioP2
81320;SDS011;70785;52.570;5.638;2024-01-11T00:01:49;25.80;;;11.48;;
81320;SDS011;70785;52.570;5.638;2024-01-11T00:04:15;23.73;;;10.55;;
81320;SDS011;70785;52.570;5.638;2024-01-11T00:06:42;22.25;;;9.75;;
81320;SDS011;70785;52.570;5.638;2024-01-11T00:09:08;25.15;;;10.45;;
81320;SDS011;70785;52.570;5.638;2024-01-11T00:11:35;26.42;;;11.25;;
81320;SDS011;70785;52.570;5.638;2024-01-11T00:14:01;24.55;;;11.60;;
81320;SDS011;70785;52.570;5.638;2024-01-11T00:16:27;26.52;;;11.75;;
81320;SDS011;70785;52.570;5.638;2024-01-11T00:18:53;30.35;;;12.25;;
81320;SDS011;70785;52.570;5.638;2024-01-11T00:21:19;26.02;;;11.68;;
81320;SDS011;70785;52.570;5.638;2024-01-11T00:23:45;26.58;;;11.50;;
81320;SDS011;70785;52.570;5.638;2024-01-11T00:26:12;25.13;;;11.40;;
81320;SDS011;70785;52.570;5.638;2024-01-11T00:28:38;25.50;;;12.02;;
81320;SDS011;70785;52.570;5.638;2024-01-11T00:31:04;28.67;;;13.63;;
81320;SDS011;70785;52.570;5.638;2024-01-11T00:33:30;26.85;;;12.77;;
81320;SDS011;70785;52.570;5.638;2024-01-11T00:35:57;28.35;;;11.93;;
81320;SDS011;70785;52.570;5.638;2024-01-11T00:38:24;23.83;;;10.50;;
81320;SDS011;70785;52.570;5.638;2024-01-11T00:40:50;29.42;;;12.40;;
81320;SDS011;70785;52.570;5.638;2024-01-11T00:43:16;29.17;;;13.30;;
81320;SDS011;70785;52.570;5.638;2024-01-11T00:45:43;27.50;;;12.68;;
81320;SDS011;70785;52.570;5.638;2024-01-11T00:48:10;31.05;;;13.63;;
81320;SDS011;70785;52.570;5.638;2024-01-11T00:50:36;29.30;;;12.55;;
81320;SDS011;70785;52.570;5.638;2024-01-11T00:53:02;23.42;;;12.25;;
81320;SDS011;70785;52.570;5.638;2024-01-11T00:55:29;29.70;;;12.90;;
81320;SDS011;70785;52.570;5.638;2024-01-11T00:57:55;31.67;;;12.38;;
81320;SDS011;70785;52.570;5.638;2024-01-11T01:00:21;27.05;;;12.07;;
81320;SDS011;70785;52.570;5.638;2024-01-11T01:02:47;27.98;;;12.40;;
81320;SDS011;70785;52.570;5.638;2024-01-11T01:05:13;31.90;;;12.57;;
81320;SDS011;70785;52.570;5.638;2024-01-11T01:07:40;32.10;;;13.32;;
81320;SDS011;70785;52.570;5.638;2024-01-11T01:10:06;26.27;;;12.95;;
81320;SDS011;70785;52.570;5.638;2024-01-11T01:12:33;32.15;;;13.95;;
81320;SDS011;70785;52.570;5.638;2024-01-11T01:14:59;27.88;;;10.73;;
81320;SDS011;70785;52.570;5.638;2024-01-11T01:17:25;26.25;;;10.00;;
81320;SDS011;70785;52.570;5.638;2024-01-11T01:19:52;29.13;;;13.23;;
81320;SDS011;70785;52.570;5.638;2024-01-11T01:22:18;30.95;;;12.52;;
81320;SDS011;70785;52.570;5.638;2024-01-11T01:24:44;38.70;;;14.05;;
81320;SDS011;70785;52.570;5.638;2024-01-11T01:27:10;31.65;;;13.05;;
81320;SDS011;70785;52.570;5.638;2024-01-11T01:29:36;29.33;;;14.27;;
81320;SDS011;70785;52.570;5.638;2024-01-11T01:32:02;30.92;;;13.50;;
81320;SDS011;70785;52.570;5.638;2024-01-11T01:34:28;28.40;;;11.52;;
81320;SDS011;70785;52.570;5.638;2024-01-11T01:36:54;30.65;;;13.15;;
81320;SDS011;70785;52.570;5.638;2024-01-11T01:39:21;30.38;;;12.45;;
81320;SDS011;70785;52.570;5.638;2024-01-11T01:41:47;27.55;;;11.75;;
81320;SDS011;70785;52.570;5.638;2024-01-11T01:44:13;22.70;;;11.65;;
81320;SDS011;70785;52.570;5.638;2024-01-11T01:46:39;29.05;;;13.55;;
81320;SDS011;70785;52.570;5.638;2024-01-11T01:49:05;25.60;;;12.55;;
81320;SDS011;70785;52.570;5.638;2024-01-11T01:51:32;30.13;;;12.57;;
81320;SDS011;70785;52.570;5.638;2024-01-11T01:53:59;26.95;;;12.95;;
81320;SDS011;70785;52.570;5.638;2024-01-11T01:56:27;28.50;;;13.05;;
81320;SDS011;70785;52.570;5.638;2024-01-11T01:58:54;32.42;;;15.02;;
81320;SDS011;70785;52.570;5.638;2024-01-11T02:01:21;30.77;;;12.70;;
81320;SDS011;70785;52.570;5.638;2024-01-11T02:03:51;30.85;;;13.15;;
81320;SDS011;70785;52.570;5.638;2024-01-11T02:06:19;28.42;;;13.20;;
81320;SDS011;70785;52.570;5.638;2024-01-11T02:08:53;33.85;;;14.65;;
81320;SDS011;70785;52.570;5.638;2024-01-11T02:11:22;26.50;;;11.90;;
81320;SDS011;70785;52.570;5.638;2024-01-11T02:13:50;30.85;;;12.95;;
81320;SDS011;70785;52.570;5.638;2024-01-11T02:16:16;28.02;;;13.13;;
81320;SDS011;70785;52.570;5.638;2024-01-11T02:18:43;28.95;;;13.70;;
81320;SDS011;70785;52.570;5.638;2024-01-11T02:21:10;34.85;;;16.23;;
81320;SDS011;70785;52.570;5.638;2024-01-11T02:23:43;31.85;;;13.82;;
81320;SDS011;70785;52.570;5.638;2024-01-11T02:26:13;32.30;;;12.77;;
81320;SDS011;70785;52.570;5.638;2024-01-11T02:28:43;34.30;;;14.93;;
81320;SDS011;70785;52.570;5.638;2024-01-11T02:31:10;28.40;;;12.52;;
81320;SDS011;70785;52.570;5.638;2024-01-11T02:33:38;36.63;;;15.85;;
81320;SDS011;70785;52.570;5.638;2024-01-11T02:36:05;27.23;;;12.77;;
81320;SDS011;70785;52.570;5.638;2024-01-11T02:38:32;34.03;;;13.68;;
81320;SDS011;70785;52.570;5.638;2024-01-11T02:41:00;25.90;;;13.88;;
81320;SDS011;70785;52.570;5.638;2024-01-11T02:43:26;31.23;;;11.88;;
81320;SDS011;70785;52.570;5.638;2024-01-11T02:45:55;27.67;;;12.25;;
81320;SDS011;70785;52.570;5.638;2024-01-11T02:48:27;27.77;;;11.65;;
81320;SDS011;70785;52.570;5.638;2024-01-11T02:50:59;30.48;;;13.13;;
81320;SDS011;70785;52.570;5.638;2024-01-11T02:53:25;28.55;;;13.70;;
81320;SDS011;70785;52.570;5.638;2024-01-11T02:55:51;32.15;;;13.80;;
81320;SDS011;70785;52.570;5.638;2024-01-11T02:58:17;28.13;;;12.73;;
81320;SDS011;70785;52.570;5.638;2024-01-11T03:00:43;29.75;;;12.15;;
81320;SDS011;70785;52.570;5.638;2024-01-11T03:03:09;33.75;;;14.70;;
81320;SDS011;70785;52.570;5.638;2024-01-11T03:05:36;31.45;;;13.07;;
81320;SDS011;70785;52.570;5.638;2024-01-11T03:08:02;29.80;;;13.73;;
81320;SDS011;70785;52.570;5.638;2024-01-11T03:10:28;30.70;;;13.40;;
81320;SDS011;70785;52.570;5.638;2024-01-11T03:12:54;26.85;;;13.20;;
81320;SDS011;70785;52.570;5.638;2024-01-11T03:15:20;33.13;;;14.80;;
81320;SDS011;70785;52.570;5.638;2024-01-11T03:17:46;34.50;;;13.40;;
81320;SDS011;70785;52.570;5.638;2024-01-11T03:20:12;28.35;;;13.38;;
81320;SDS011;70785;52.570;5.638;2024-01-11T03:22:44;26.20;;;13.15;;
81320;SDS011;70785;52.570;5.638;2024-01-11T03:25:11;30.50;;;13.02;;
81320;SDS011;70785;52.570;5.638;2024-01-11T03:27:37;31.30;;;12.63;;
81320;SDS011;70785;52.570;5.638;2024-01-11T03:30:03;25.63;;;13.20;;
81320;SDS011;70785;52.570;5.638;2024-01-11T03:32:30;28.63;;;12.63;;
81320;SDS011;70785;52.570;5.638;2024-01-11T03:34:56;25.38;;;11.23;;
81320;SDS011;70785;52.570;5.638;2024-01-11T03:37:22;38.10;;;16.50;;
81320;SDS011;70785;52.570;5.638;2024-01-11T03:39:48;32.63;;;13.77;;
81320;SDS011;70785;52.570;5.638;2024-01-11T03:42:14;31.63;;;13.90;;
81320;SDS011;70785;52.570;5.638;2024-01-11T03:44:40;26.90;;;12.48;;
81320;SDS011;70785;52.570;5.638;2024-01-11T03:47:06;35.60;;;14.55;;
81320;SDS011;70785;52.570;5.638;2024-01-11T03:49:33;33.17;;;13.88;;
81320;SDS011;70785;52.570;5.638;2024-01-11T03:51:59;32.42;;;12.23;;
81320;SDS011;70785;52.570;5.638;2024-01-11T03:54:25;28.77;;;12.77;;
81320;SDS011;70785;52.570;5.638;2024-01-11T03:56:51;30.95;;;11.73;;
81320;SDS011;70785;52.570;5.638;2024-01-11T03:59:17;32.03;;;12.40;;
81320;SDS011;70785;52.570;5.638;2024-01-11T04:01:43;32.08;;;12.65;;
81320;SDS011;70785;52.570;5.638;2024-01-11T04:04:10;34.92;;;14.00;;
81320;SDS011;70785;52.570;5.638;2024-01-11T04:06:36;33.60;;;13.23;;
81320;SDS011;70785;52.570;5.638;2024-01-11T04:09:02;27.05;;;13.85;;
81320;SDS011;70785;52.570;5.638;2024-01-11T04:11:28;27.35;;;11.43;;
81320;SDS011;70785;52.570;5.638;2024-01-11T04:13:55;24.65;;;12.52;;
81320;SDS011;70785;52.570;5.638;2024-01-11T04:16:21;38.22;;;14.93;;
81320;SDS011;70785;52.570;5.638;2024-01-11T04:18:47;32.50;;;13.93;;
81320;SDS011;70785;52.570;5.638;2024-01-11T04:21:23;32.55;;;13.68;;
81320;SDS011;70785;52.570;5.638;2024-01-11T04:23:50;28.15;;;12.30;;
81320;SDS011;70785;52.570;5.638;2024-01-11T04:26:17;32.95;;;13.02;;
81320;SDS011;70785;52.570;5.638;2024-01-11T04:28:44;34.08;;;14.95;;
81320;SDS011;70785;52.570;5.638;2024-01-11T04:31:12;29.55;;;13.23;;
81320;SDS011;70785;52.570;5.638;2024-01-11T04:33:41;34.03;;;14.95;;
81320;SDS011;70785;52.570;5.638;2024-01-11T04:36:11;29.65;;;11.15;;
81320;SDS011;70785;52.570;5.638;2024-01-11T04:38:38;31.38;;;12.73;;
81320;SDS011;70785;52.570;5.638;2024-01-11T04:41:13;36.08;;;15.68;;
81320;SDS011;70785;52.570;5.638;2024-01-11T04:43:41;27.75;;;14.55;;
81320;SDS011;70785;52.570;5.638;2024-01-11T04:46:18;34.80;;;13.43;;
81320;SDS011;70785;52.570;5.638;2024-01-11T04:48:46;32.78;;;14.57;;
81320;SDS011;70785;52.570;5.638;2024-01-11T04:51:14;29.85;;;11.65;;
81320;SDS011;70785;52.570;5.638;2024-01-11T04:53:42;27.15;;;12.15;;
81320;SDS011;70785;52.570;5.638;2024-01-11T04:56:09;30.05;;;11.85;;
81320;SDS011;70785;52.570;5.638;2024-01-11T04:58:38;29.67;;;12.95;;
81320;SDS011;70785;52.570;5.638;2024-01-11T05:01:06;29.40;;;13.50;;
81320;SDS011;70785;52.570;5.638;2024-01-11T05:03:33;30.88;;;13.57;;
81320;SDS011;70785;52.570;5.638;2024-01-11T05:05:59;28.98;;;11.98;;
81320;SDS011;70785;52.570;5.638;2024-01-11T05:08:25;30.17;;;12.32;;
81320;SDS011;70785;52.570;5.638;2024-01-11T05:10:52;29.85;;;11.73;;
81320;SDS011;70785;52.570;5.638;2024-01-11T05:13:18;28.67;;;12.45;;
81320;SDS011;70785;52.570;5.638;2024-01-11T05:15:44;34.78;;;14.25;;
81320;SDS011;70785;52.570;5.638;2024-01-11T05:18:11;33.42;;;12.98;;
81320;SDS011;70785;52.570;5.638;2024-01-11T05:20:37;27.58;;;11.05;;
81320;SDS011;70785;52.570;5.638;2024-01-11T05:23:04;32.15;;;12.50;;
81320;SDS011;70785;52.570;5.638;2024-01-11T05:25:31;28.98;;;13.25;;
81320;SDS011;70785;52.570;5.638;2024-01-11T05:28:00;32.65;;;12.82;;
81320;SDS011;70785;52.570;5.638;2024-01-11T05:30:27;29.98;;;12.63;;
81320;SDS011;70785;52.570;5.638;2024-01-11T05:32:54;34.75;;;13.45;;
81320;SDS011;70785;52.570;5.638;2024-01-11T05:35:20;28.88;;;12.23;;
81320;SDS011;70785;52.570;5.638;2024-01-11T05:37:52;30.90;;;13.85;;
81320;SDS011;70785;52.570;5.638;2024-01-11T05:40:20;31.88;;;14.40;;
81320;SDS011;70785;52.570;5.638;2024-01-11T05:42:47;29.30;;;13.27;;
81320;SDS011;70785;52.570;5.638;2024-01-11T05:45:13;34.05;;;14.63;;
81320;SDS011;70785;52.570;5.638;2024-01-11T05:47:42;35.42;;;15.43;;
81320;SDS011;70785;52.570;5.638;2024-01-11T05:50:10;31.02;;;13.98;;
81320;SDS011;70785;52.570;5.638;2024-01-11T05:52:37;33.03;;;13.90;;
81320;SDS011;70785;52.570;5.638;2024-01-11T05:55:03;30.27;;;13.30;;
81320;SDS011;70785;52.570;5.638;2024-01-11T05:57:30;29.38;;;13.25;;
81320;SDS011;70785;52.570;5.638;2024-01-11T05:59:56;34.05;;;14.18;;
81320;SDS011;70785;52.570;5.638;2024-01-11T06:02:22;31.85;;;14.48;;
81320;SDS011;70785;52.570;5.638;2024-01-11T06:04:48;32.22;;;12.65;;
81320;SDS011;70785;52.570;5.638;2024-01-11T06:07:15;28.65;;;12.55;;
81320;SDS011;70785;52.570;5.638;2024-01-11T06:09:41;33.42;;;13.98;;
81320;SDS011;70785;52.570;5.638;2024-01-11T06:12:07;32.03;;;12.65;;
81320;SDS011;70785;52.570;5.638;2024-01-11T06:14:34;30.35;;;14.75;;
81320;SDS011;70785;52.570;5.638;2024-01-11T06:17:01;32.47;;;15.68;;
81320;SDS011;70785;52.570;5.638;2024-01-11T06:19:27;35.30;;;14.57;;
81320;SDS011;70785;52.570;5.638;2024-01-11T06:21:53;33.25;;;13.07;;
81320;SDS011;70785;52.570;5.638;2024-01-11T06:24:19;31.05;;;12.93;;
81320;SDS011;70785;52.570;5.638;2024-01-11T06:26:45;29.70;;;13.70;;
81320;SDS011;70785;52.570;5.638;2024-01-11T06:29:11;32.42;;;13.88;;
81320;SDS011;70785;52.570;5.638;2024-01-11T06:31:37;30.95;;;14.30;;
81320;SDS011;70785;52.570;5.638;2024-01-11T06:34:03;33.10;;;15.60;;
81320;SDS011;70785;52.570;5.638;2024-01-11T06:36:30;35.63;;;14.40;;
81320;SDS011;70785;52.570;5.638;2024-01-11T06:38:56;35.53;;;14.98;;
81320;SDS011;70785;52.570;5.638;2024-01-11T06:41:22;35.85;;;15.35;;
81320;SDS011;70785;52.570;5.638;2024-01-11T06:43:48;37.05;;;14.73;;
81320;SDS011;70785;52.570;5.638;2024-01-11T06:46:19;36.60;;;15.52;;
81320;SDS011;70785;52.570;5.638;2024-01-11T06:48:46;33.00;;;14.95;;
81320;SDS011;70785;52.570;5.638;2024-01-11T06:51:15;29.38;;;12.88;;
81320;SDS011;70785;52.570;5.638;2024-01-11T06:53:42;32.92;;;15.15;;
81320;SDS011;70785;52.570;5.638;2024-01-11T06:56:18;38.17;;;15.65;;
81320;SDS011;70785;52.570;5.638;2024-01-11T07:01:13;33.65;;;14.07;;
81320;SDS011;70785;52.570;5.638;2024-01-11T07:03:39;35.03;;;15.90;;
81320;SDS011;70785;52.570;5.638;2024-01-11T07:06:05;31.63;;;14.50;;
81320;SDS011;70785;52.570;5.638;2024-01-11T07:08:32;34.13;;;13.35;;
81320;SDS011;70785;52.570;5.638;2024-01-11T07:11:02;36.25;;;15.32;;
81320;SDS011;70785;52.570;5.638;2024-01-11T07:13:28;32.95;;;13.27;;
81320;SDS011;70785;52.570;5.638;2024-01-11T07:15:55;31.30;;;12.82;;
81320;SDS011;70785;52.570;5.638;2024-01-11T07:18:22;34.15;;;13.75;;
81320;SDS011;70785;52.570;5.638;2024-01-11T07:20:50;31.65;;;14.02;;
81320;SDS011;70785;52.570;5.638;2024-01-11T07:23:16;32.50;;;11.98;;
81320;SDS011;70785;52.570;5.638;2024-01-11T07:25:42;29.10;;;13.45;;
81320;SDS011;70785;52.570;5.638;2024-01-11T07:28:09;30.25;;;12.55;;
81320;SDS011;70785;52.570;5.638;2024-01-11T07:30:35;35.53;;;15.18;;
81320;SDS011;70785;52.570;5.638;2024-01-11T07:33:01;27.80;;;11.02;;
81320;SDS011;70785;52.570;5.638;2024-01-11T07:35:27;29.38;;;13.40;;
81320;SDS011;70785;52.570;5.638;2024-01-11T07:37:53;30.60;;;13.88;;
81320;SDS011;70785;52.570;5.638;2024-01-11T07:40:19;35.88;;;14.02;;
81320;SDS011;70785;52.570;5.638;2024-01-11T07:42:46;33.03;;;12.65;;
81320;SDS011;70785;52.570;5.638;2024-01-11T07:45:12;29.00;;;13.60;;
81320;SDS011;70785;52.570;5.638;2024-01-11T07:47:39;32.03;;;14.25;;
81320;SDS011;70785;52.570;5.638;2024-01-11T07:50:05;27.73;;;13.07;;
81320;SDS011;70785;52.570;5.638;2024-01-11T07:52:33;31.60;;;13.30;;
81320;SDS011;70785;52.570;5.638;2024-01-11T07:54:59;27.45;;;12.43;;
81320;SDS011;70785;52.570;5.638;2024-01-11T07:57:33;31.20;;;13.13;;
81320;SDS011;70785;52.570;5.638;2024-01-11T08:00:03;31.58;;;13.00;;
81320;SDS011;70785;52.570;5.638;2024-01-11T08:02:38;29.38;;;12.63;;
81320;SDS011;70785;52.570;5.638;2024-01-11T08:05:04;29.65;;;13.73;;
81320;SDS011;70785;52.570;5.638;2024-01-11T08:07:31;31.67;;;11.68;;
81320;SDS011;70785;52.570;5.638;2024-01-11T08:09:57;24.20;;;12.05;;
81320;SDS011;70785;52.570;5.638;2024-01-11T08:12:23;31.27;;;13.55;;
81320;SDS011;70785;52.570;5.638;2024-01-11T08:14:50;28.83;;;14.32;;
81320;SDS011;70785;52.570;5.638;2024-01-11T08:17:16;28.05;;;14.43;;
81320;SDS011;70785;52.570;5.638;2024-01-11T08:19:42;24.58;;;11.55;;
81320;SDS011;70785;52.570;5.638;2024-01-11T08:22:09;28.48;;;12.45;;
81320;SDS011;70785;52.570;5.638;2024-01-11T08:24:36;28.35;;;12.25;;
81320;SDS011;70785;52.570;5.638;2024-01-11T08:27:03;25.80;;;11.20;;
81320;SDS011;70785;52.570;5.638;2024-01-11T08:29:30;27.77;;;12.73;;
81320;SDS011;70785;52.570;5.638;2024-01-11T08:31:56;28.73;;;13.80;;
81320;SDS011;70785;52.570;5.638;2024-01-11T08:34:22;32.47;;;13.85;;
81320;SDS011;70785;52.570;5.638;2024-01-11T08:36:52;29.02;;;12.75;;
81320;SDS011;70785;52.570;5.638;2024-01-11T08:39:18;26.70;;;12.45;;
81320;SDS011;70785;52.570;5.638;2024-01-11T08:41:44;31.45;;;14.57;;
81320;SDS011;70785;52.570;5.638;2024-01-11T08:44:10;27.52;;;13.27;;
81320;SDS011;70785;52.570;5.638;2024-01-11T08:46:36;29.88;;;13.02;;
81320;SDS011;70785;52.570;5.638;2024-01-11T08:49:03;30.38;;;13.23;;
81320;SDS011;70785;52.570;5.638;2024-01-11T08:51:29;31.58;;;12.77;;
81320;SDS011;70785;52.570;5.638;2024-01-11T08:53:56;27.75;;;10.75;;
81320;SDS011;70785;52.570;5.638;2024-01-11T08:56:24;25.85;;;13.82;;
81320;SDS011;70785;52.570;5.638;2024-01-11T08:58:51;31.83;;;13.52;;
81320;SDS011;70785;52.570;5.638;2024-01-11T09:01:17;26.48;;;12.70;;
81320;SDS011;70785;52.570;5.638;2024-01-11T09:03:43;26.95;;;11.40;;
81320;SDS011;70785;52.570;5.638;2024-01-11T09:06:10;30.05;;;15.00;;
81320;SDS011;70785;52.570;5.638;2024-01-11T09:08:36;28.17;;;12.60;;
81320;SDS011;70785;52.570;5.638;2024-01-11T09:11:03;28.80;;;12.77;;
81320;SDS011;70785;52.570;5.638;2024-01-11T09:13:29;25.15;;;11.82;;
81320;SDS011;70785;52.570;5.638;2024-01-11T09:15:55;27.00;;;12.43;;
81320;SDS011;70785;52.570;5.638;2024-01-11T09:18:21;30.40;;;12.65;;
81320;SDS011;70785;52.570;5.638;2024-01-11T09:20:48;23.63;;;10.35;;
81320;SDS011;70785;52.570;5.638;2024-01-11T09:23:14;26.13;;;12.48;;
81320;SDS011;70785;52.570;5.638;2024-01-11T09:25:41;30.00;;;12.43;;
81320;SDS011;70785;52.570;5.638;2024-01-11T09:28:07;28.70;;;12.50;;
81320;SDS011;70785;52.570;5.638;2024-01-11T09:30:33;25.75;;;12.20;;
81320;SDS011;70785;52.570;5.638;2024-01-11T09:32:59;25.45;;;11.80;;
81320;SDS011;70785;52.570;5.638;2024-01-11T09:35:26;28.08;;;12.50;;
81320;SDS011;70785;52.570;5.638;2024-01-11T09:37:52;30.73;;;14.48;;
81320;SDS011;70785;52.570;5.638;2024-01-11T09:40:18;29.60;;;14.27;;
81320;SDS011;70785;52.570;5.638;2024-01-11T09:42:44;27.27;;;13.25;;
81320;SDS011;70785;52.570;5.638;2024-01-11T09:45:14;24.98;;;12.07;;
81320;SDS011;70785;52.570;5.638;2024-01-11T09:47:41;30.98;;;12.65;;
81320;SDS011;70785;52.570;5.638;2024-01-11T09:50:11;25.88;;;12.38;;
81320;SDS011;70785;52.570;5.638;2024-01-11T09:52:45;27.20;;;13.50;;
81320;SDS011;70785;52.570;5.638;2024-01-11T09:55:13;26.50;;;12.95;;
81320;SDS011;70785;52.570;5.638;2024-01-11T09:57:41;23.98;;;11.82;;
81320;SDS011;70785;52.570;5.638;2024-01-11T10:00:10;26.55;;;12.98;;
81320;SDS011;70785;52.570;5.638;2024-01-11T10:02:39;28.13;;;12.43;;
81320;SDS011;70785;52.570;5.638;2024-01-11T10:05:05;28.48;;;14.10;;
81320;SDS011;70785;52.570;5.638;2024-01-11T10:07:32;26.65;;;12.45;;
81320;SDS011;70785;52.570;5.638;2024-01-11T10:09:59;30.40;;;13.57;;
81320;SDS011;70785;52.570;5.638;2024-01-11T10:12:27;28.77;;;14.13;;
81320;SDS011;70785;52.570;5.638;2024-01-11T10:14:54;28.10;;;13.68;;
81320;SDS011;70785;52.570;5.638;2024-01-11T10:17:20;28.98;;;14.52;;
81320;SDS011;70785;52.570;5.638;2024-01-11T10:19:46;27.35;;;13.73;;
81320;SDS011;70785;52.570;5.638;2024-01-11T10:22:12;27.45;;;13.32;;
81320;SDS011;70785;52.570;5.638;2024-01-11T10:24:42;26.27;;;11.77;;
81320;SDS011;70785;52.570;5.638;2024-01-11T10:27:08;23.40;;;10.90;;
81320;SDS011;70785;52.570;5.638;2024-01-11T10:29:35;25.85;;;12.85;;
81320;SDS011;70785;52.570;5.638;2024-01-11T10:32:05;28.63;;;11.70;;
81320;SDS011;70785;52.570;5.638;2024-01-11T10:34:31;26.80;;;13.10;;
81320;SDS011;70785;52.570;5.638;2024-01-11T10:36:58;24.98;;;11.63;;
81320;SDS011;70785;52.570;5.638;2024-01-11T10:39:25;28.08;;;13.52;;
81320;SDS011;70785;52.570;5.638;2024-01-11T10:42:03;28.77;;;12.63;;
81320;SDS011;70785;52.570;5.638;2024-01-11T10:44:32;27.40;;;12.95;;
81320;SDS011;70785;52.570;5.638;2024-01-11T10:46:59;29.20;;;13.38;;
81320;SDS011;70785;52.570;5.638;2024-01-11T10:49:29;28.20;;;14.50;;
81320;SDS011;70785;52.570;5.638;2024-01-11T10:54:31;27.85;;;11.15;;
81320;SDS011;70785;52.570;5.638;2024-01-11T10:57:00;24.55;;;10.57;;
81320;SDS011;70785;52.570;5.638;2024-01-11T10:59:27;24.88;;;12.20;;
81320;SDS011;70785;52.570;5.638;2024-01-11T11:01:57;24.50;;;11.80;;
81320;SDS011;70785;52.570;5.638;2024-01-11T11:04:26;22.13;;;10.90;;
81320;SDS011;70785;52.570;5.638;2024-01-11T11:06:55;27.20;;;12.88;;
81320;SDS011;70785;52.570;5.638;2024-01-11T11:09:24;26.80;;;13.27;;
81320;SDS011;70785;52.570;5.638;2024-01-11T11:11:53;24.77;;;11.13;;
81320;SDS011;70785;52.570;5.638;2024-01-11T11:14:23;23.08;;;10.50;;
81320;SDS011;70785;52.570;5.638;2024-01-11T11:16:50;24.58;;;10.93;;
81320;SDS011;70785;52.570;5.638;2024-01-11T11:19:19;24.20;;;12.57;;
81320;SDS011;70785;52.570;5.638;2024-01-11T11:21:47;23.70;;;11.50;;
81320;SDS011;70785;52.570;5.638;2024-01-11T11:24:14;26.13;;;11.80;;
81320;SDS011;70785;52.570;5.638;2024-01-11T11:26:42;24.88;;;10.95;;
81320;SDS011;70785;52.570;5.638;2024-01-11T11:29:08;22.58;;;10.35;;
81320;SDS011;70785;52.570;5.638;2024-01-11T11:34:02;24.27;;;12.40;;
81320;SDS011;70785;52.570;5.638;2024-01-11T11:36:29;22.15;;;10.52;;
81320;SDS011;70785;52.570;5.638;2024-01-11T11:38:56;28.65;;;11.77;;
81320;SDS011;70785;52.570;5.638;2024-01-11T11:41:26;24.60;;;11.02;;
81320;SDS011;70785;52.570;5.638;2024-01-11T11:43:52;23.38;;;11.27;;
81320;SDS011;70785;52.570;5.638;2024-01-11T11:46:19;23.92;;;13.50;;
81320;SDS011;70785;52.570;5.638;2024-01-11T11:51:12;25.63;;;13.35;;
81320;SDS011;70785;52.570;5.638;2024-01-11T11:53:39;23.35;;;11.80;;
81320;SDS011;70785;52.570;5.638;2024-01-11T11:56:06;28.60;;;12.00;;
81320;SDS011;70785;52.570;5.638;2024-01-11T11:58:38;23.75;;;13.07;;
81320;SDS011;70785;52.570;5.638;2024-01-11T12:01:08;28.73;;;12.10;;
81320;SDS011;70785;52.570;5.638;2024-01-11T12:03:35;22.55;;;10.70;;
81320;SDS011;70785;52.570;5.638;2024-01-11T12:06:06;23.50;;;10.32;;
81320;SDS011;70785;52.570;5.638;2024-01-11T12:08:38;23.58;;;10.55;;
81320;SDS011;70785;52.570;5.638;2024-01-11T12:11:07;25.35;;;11.98;;
81320;SDS011;70785;52.570;5.638;2024-01-11T12:13:34;26.20;;;12.23;;
81320;SDS011;70785;52.570;5.638;2024-01-11T12:16:01;23.27;;;10.93;;
81320;SDS011;70785;52.570;5.638;2024-01-11T12:18:27;25.90;;;11.70;;
81320;SDS011;70785;52.570;5.638;2024-01-11T12:20:53;23.23;;;10.93;;
81320;SDS011;70785;52.570;5.638;2024-01-11T12:23:19;23.08;;;10.88;;
81320;SDS011;70785;52.570;5.638;2024-01-11T12:25:46;22.73;;;11.18;;
81320;SDS011;70785;52.570;5.638;2024-01-11T12:28:12;26.85;;;11.48;;
81320;SDS011;70785;52.570;5.638;2024-01-11T12:30:39;27.38;;;11.52;;
81320;SDS011;70785;52.570;5.638;2024-01-11T12:33:05;22.25;;;11.05;;
81320;SDS011;70785;52.570;5.638;2024-01-11T12:35:32;25.27;;;11.95;;
81320;SDS011;70785;52.570;5.638;2024-01-11T12:37:59;29.35;;;11.68;;
81320;SDS011;70785;52.570;5.638;2024-01-11T12:40:26;29.52;;;11.52;;
81320;SDS011;70785;52.570;5.638;2024-01-11T12:42:53;23.38;;;11.07;;
81320;SDS011;70785;52.570;5.638;2024-01-11T12:45:19;23.90;;;10.57;;
81320;SDS011;70785;52.570;5.638;2024-01-11T12:47:46;26.50;;;11.80;;
81320;SDS011;70785;52.570;5.638;2024-01-11T12:50:12;25.70;;;10.35;;
81320;SDS011;70785;52.570;5.638;2024-01-11T12:52:38;22.88;;;10.32;;
81320;SDS011;70785;52.570;5.638;2024-01-11T12:55:06;21.35;;;10.70;;
81320;SDS011;70785;52.570;5.638;2024-01-11T12:57:34;26.25;;;13.10;;
81320;SDS011;70785;52.570;5.638;2024-01-11T13:00:12;24.02;;;10.57;;
81320;SDS011;70785;52.570;5.638;2024-01-11T13:02:41;24.63;;;12.25;;
81320;SDS011;70785;52.570;5.638;2024-01-11T13:05:12;25.92;;;12.77;;
81320;SDS011;70785;52.570;5.638;2024-01-11T13:07:40;26.50;;;11.45;;
81320;SDS011;70785;52.570;5.638;2024-01-11T13:10:07;25.85;;;11.43;;
81320;SDS011;70785;52.570;5.638;2024-01-11T13:12:33;25.23;;;11.38;;
81320;SDS011;70785;52.570;5.638;2024-01-11T13:14:59;21.55;;;10.05;;
81320;SDS011;70785;52.570;5.638;2024-01-11T13:17:25;23.38;;;10.75;;
81320;SDS011;70785;52.570;5.638;2024-01-11T13:19:53;24.42;;;10.65;;
81320;SDS011;70785;52.570;5.638;2024-01-11T13:22:19;19.85;;;9.85;;
81320;SDS011;70785;52.570;5.638;2024-01-11T13:24:45;23.20;;;10.77;;
81320;SDS011;70785;52.570;5.638;2024-01-11T13:27:11;23.27;;;10.77;;
81320;SDS011;70785;52.570;5.638;2024-01-11T13:29:37;19.73;;;11.15;;
81320;SDS011;70785;52.570;5.638;2024-01-11T13:32:04;23.70;;;12.02;;
81320;SDS011;70785;52.570;5.638;2024-01-11T13:34:30;22.65;;;10.73;;
81320;SDS011;70785;52.570;5.638;2024-01-11T13:36:56;19.98;;;9.95;;
81320;SDS011;70785;52.570;5.638;2024-01-11T13:39:25;28.13;;;12.13;;
81320;SDS011;70785;52.570;5.638;2024-01-11T13:41:51;24.67;;;10.85;;
81320;SDS011;70785;52.570;5.638;2024-01-11T13:44:17;25.10;;;12.63;;
81320;SDS011;70785;52.570;5.638;2024-01-11T13:46:43;22.48;;;11.65;;
81320;SDS011;70785;52.570;5.638;2024-01-11T13:49:09;24.95;;;11.10;;
81320;SDS011;70785;52.570;5.638;2024-01-11T13:51:35;21.58;;;10.45;;
81320;SDS011;70785;52.570;5.638;2024-01-11T13:54:03;24.63;;;11.52;;
81320;SDS011;70785;52.570;5.638;2024-01-11T13:56:29;24.65;;;11.40;;
81320;SDS011;70785;52.570;5.638;2024-01-11T13:58:56;23.23;;;10.45;;
81320;SDS011;70785;52.570;5.638;2024-01-11T14:01:22;21.70;;;11.32;;
81320;SDS011;70785;52.570;5.638;2024-01-11T14:03:48;17.38;;;10.02;;
81320;SDS011;70785;52.570;5.638;2024-01-11T14:06:14;20.27;;;8.73;;
81320;SDS011;70785;52.570;5.638;2024-01-11T14:08:40;18.67;;;8.98;;
81320;SDS011;70785;52.570;5.638;2024-01-11T14:11:06;22.80;;;10.90;;
81320;SDS011;70785;52.570;5.638;2024-01-11T14:13:32;20.55;;;9.40;;
81320;SDS011;70785;52.570;5.638;2024-01-11T14:15:59;20.83;;;10.02;;
81320;SDS011;70785;52.570;5.638;2024-01-11T14:18:25;19.55;;;9.88;;
81320;SDS011;70785;52.570;5.638;2024-01-11T14:20:52;18.80;;;8.65;;
81320;SDS011;70785;52.570;5.638;2024-01-11T14:23:18;24.15;;;9.05;;
81320;SDS011;70785;52.570;5.638;2024-01-11T14:25:44;21.88;;;9.20;;
81320;SDS011;70785;52.570;5.638;2024-01-11T14:28:10;19.58;;;9.95;;
81320;SDS011;70785;52.570;5.638;2024-01-11T14:30:36;20.33;;;8.45;;